Time;durP1;ratioP1;P1;durP2;ratioP2;P2;SDS_P1;SDS_P2;PMS_P1;PMS_P2;Temp;Humidity;BMP_temperature;BMP_pressure;BME280_temperature;BME280_humidity;BME280_pressure;Samples;Min_cycle;Max_cycle;Signal;HPM_P1;HPM_P2
2021/01/12 00:00:50;;;;;;;8.63;5.70;;;7.60;89.50;;;;;;5092706;28;20020;-75
2021/01/12 00:03:16;;;;;;;5.82;4.82;;;7.60;89.60;;;;;;5093598;28;20028;-74
2021/01/12 00:05:42;;;;;;;5.45;4.05;;;7.60;89.80;;;;;;5093621;28;20085;-75
2021/01/12 00:08:07;;;;;;;6.20;5.07;;;7.60;89.70;;;;;;5092347;28;20035;-75
2021/01/12 00:10:34;;;;;;;6.65;4.47;;;7.70;90.00;;;;;;5092290;28;20028;-75
2021/01/12 00:13:00;;;;;;;4.70;4.22;;;7.60;90.00;;;;;;5092122;28;20028;-75
2021/01/12 00:15:25;;;;;;;6.07;4.95;;;7.70;90.00;;;;;;5092163;28;20395;-75
2021/01/12 00:17:52;;;;;;;4.97;4.47;;;7.70;90.10;;;;;;5092149;28;20028;-75
2021/01/12 00:20:18;;;;;;;6.40;5.38;;;7.70;90.10;;;;;;5091842;28;20051;-75
2021/01/12 00:22:44;;;;;;;7.97;4.95;;;7.70;90.10;;;;;;5091993;28;20035;-74
2021/01/12 00:25:10;;;;;;;7.75;4.70;;;7.60;90.10;;;;;;5091993;28;20031;-75
2021/01/12 00:27:35;;;;;;;4.72;4.25;;;7.70;90.20;;;;;;5091871;28;20097;-75
2021/01/12 00:30:02;;;;;;;7.10;4.72;;;7.70;90.20;;;;;;5091964;28;20024;-75
2021/01/12 00:32:28;;;;;;;6.18;4.50;;;7.70;90.30;;;;;;5091695;28;20042;-75
2021/01/12 00:38:43;;;;;;;5.13;4.63;;;7.70;90.40;;;;;;5093117;28;20039;-74
2021/01/12 00:41:09;;;;;;;4.70;4.30;;;7.60;90.40;;;;;;5091605;28;20044;-74
2021/01/12 00:43:35;;;;;;;4.55;4.03;;;7.60;90.70;;;;;;5091625;28;20569;-74
2021/01/12 00:46:00;;;;;;;5.82;5.22;;;7.70;90.50;;;;;;5091558;28;20024;-75
2021/01/12 00:48:26;;;;;;;6.05;4.90;;;7.70;90.50;;;;;;5093276;28;20032;-75
2021/01/12 00:50:52;;;;;;;5.63;4.95;;;7.70;90.60;;;;;;5091655;28;20027;-74
2021/01/12 00:53:17;;;;;;;5.97;5.18;;;7.70;90.60;;;;;;5091464;28;20032;-75
2021/01/12 00:55:43;;;;;;;6.97;6.28;;;7.70;90.60;;;;;;5091603;28;20024;-74
2021/01/12 00:58:08;;;;;;;7.28;5.90;;;7.70;90.60;;;;;;5091620;28;20380;-75
2021/01/12 01:00:34;;;;;;;9.75;6.60;;;7.60;90.60;;;;;;5092011;28;20081;-74
2021/01/12 01:02:59;;;;;;;6.40;5.65;;;7.60;90.70;;;;;;5091453;28;20039;-74
2021/01/12 01:05:25;;;;;;;7.53;5.60;;;7.70;90.80;;;;;;5091413;28;20031;-74
2021/01/12 01:07:51;;;;;;;7.57;6.18;;;7.70;90.70;;;;;;5091706;28;20077;-74
2021/01/12 01:10:17;;;;;;;7.20;6.50;;;7.70;90.70;;;;;;5091429;28;20031;-75
2021/01/12 01:12:42;;;;;;;8.00;7.18;;;7.60;90.80;;;;;;5091285;28;20036;-74
2021/01/12 01:15:08;;;;;;;7.63;6.20;;;7.60;90.80;;;;;;5090813;28;20093;-75
2021/01/12 01:17:34;;;;;;;8.25;6.50;;;7.60;90.80;;;;;;5091385;28;20020;-75
2021/01/12 01:20:00;;;;;;;7.45;6.68;;;7.60;91.20;;;;;;5091263;28;20090;-75
2021/01/12 01:22:26;;;;;;;8.48;6.47;;;7.60;90.90;;;;;;5091273;28;20028;-75
2021/01/12 01:24:52;;;;;;;8.25;6.30;;;7.60;90.90;;;;;;5091301;28;20198;-74
2021/01/12 01:27:17;;;;;;;7.10;6.40;;;7.60;90.90;;;;;;5092448;28;20090;-75
2021/01/12 01:29:44;;;;;;;6.95;6.35;;;7.60;90.90;;;;;;5091081;28;20024;-74
2021/01/12 01:32:10;;;;;;;6.88;6.15;;;7.60;91.00;;;;;;5091017;28;20028;-75
2021/01/12 01:34:36;;;;;;;6.80;5.90;;;7.70;91.00;;;;;;5091021;28;20038;-75
2021/01/12 01:37:02;;;;;;;8.77;6.72;;;7.60;90.90;;;;;;5092437;28;20035;-74
2021/01/12 01:39:28;;;;;;;6.32;5.63;;;7.60;91.00;;;;;;5090957;28;20016;-75
2021/01/12 01:42:00;;;;;;;7.00;6.30;;;7.70;91.00;;;;;;5091020;28;20190;-75
2021/01/12 01:44:26;;;;;;;7.35;6.65;;;7.70;91.00;;;;;;5091032;28;20467;-75
2021/01/12 01:46:53;;;;;;;7.40;5.95;;;7.60;91.00;;;;;;5091077;28;20169;-75
2021/01/12 01:49:19;;;;;;;7.80;6.38;;;7.60;91.00;;;;;;5091024;28;20024;-75
2021/01/12 01:51:51;;;;;;;6.15;5.55;;;7.60;91.00;;;;;;5090896;28;20551;-75
2021/01/12 01:54:16;;;;;;;5.88;5.28;;;7.70;91.10;;;;;;5092203;28;20093;-75
2021/01/12 01:56:42;;;;;;;6.25;5.35;;;7.70;91.00;;;;;;5090944;28;20028;-75
2021/01/12 01:59:08;;;;;;;5.70;5.20;;;7.70;91.00;;;;;;5090868;28;20024;-75
2021/01/12 02:01:36;;;;;;;6.05;5.45;;;7.70;91.00;;;;;;5090825;28;20032;-75
2021/01/12 02:04:39;;;;;;;6.07;5.47;;;7.70;91.00;;;;;;5090788;28;20115;-74
2021/01/12 02:07:08;;;;;;;7.13;5.07;;;7.70;91.00;;;;;;5090897;28;20039;-74
2021/01/12 02:09:42;;;;;;;6.15;5.30;;;7.70;91.00;;;;;;5091116;28;20063;-75
2021/01/12 02:12:16;;;;;;;6.07;5.47;;;7.70;91.00;;;;;;5090544;28;20065;-75
2021/01/12 02:14:45;;;;;;;5.32;4.82;;;7.70;91.10;;;;;;5092113;28;20054;-75
2021/01/12 02:17:11;;;;;;;6.00;5.43;;;7.60;91.00;;;;;;5091157;28;20380;-74
2021/01/12 02:19:38;;;;;;;5.72;4.90;;;7.60;91.10;;;;;;5090257;28;20044;-75
2021/01/12 02:22:06;;;;;;;7.40;5.10;;;7.60;91.10;;;;;;5091806;28;20028;-75
2021/01/12 02:24:33;;;;;;;5.10;4.60;;;7.60;91.10;;;;;;5091034;28;20379;-74
2021/01/12 02:26:59;;;;;;;5.30;4.80;;;7.70;91.20;;;;;;5096042;28;20122;-75
2021/01/12 02:29:25;;;;;;;6.20;5.60;;;7.60;91.20;;;;;;5094368;28;20031;-74
2021/01/12 02:31:51;;;;;;;6.10;5.50;;;7.70;91.20;;;;;;5095474;28;20467;-75
2021/01/12 02:34:18;;;;;;;6.93;4.68;;;7.70;91.30;;;;;;5095608;28;20368;-75
2021/01/12 02:36:45;;;;;;;6.78;4.82;;;7.60;91.30;;;;;;5094229;28;20447;-75
2021/01/12 02:39:12;;;;;;;5.00;4.50;;;7.70;91.40;;;;;;5095486;28;20047;-75
2021/01/12 02:41:38;;;;;;;5.40;4.80;;;7.70;91.40;;;;;;5094115;28;20061;-74
2021/01/12 02:44:04;;;;;;;5.53;4.72;;;7.70;91.40;;;;;;5093961;28;20024;-75
2021/01/12 02:46:31;;;;;;;6.70;4.50;;;7.70;91.40;;;;;;5094034;28;20085;-74
2021/01/12 02:48:58;;;;;;;5.03;4.22;;;7.70;91.50;;;;;;5095461;28;20504;-74
2021/01/12 02:51:24;;;;;;;4.72;4.22;;;7.70;91.50;;;;;;5093718;28;20032;-75
2021/01/12 02:53:50;;;;;;;5.32;4.00;;;7.80;91.80;;;;;;5095360;28;20394;-74
2021/01/12 02:56:25;;;;;;;5.35;4.10;;;7.80;91.60;;;;;;5093899;28;20016;-75
2021/01/12 02:58:51;;;;;;;5.03;4.40;;;7.80;91.60;;;;;;5093572;28;20044;-75
2021/01/12 03:01:17;;;;;;;5.60;3.92;;;7.80;91.60;;;;;;5093521;28;20387;-75
2021/01/12 03:03:42;;;;;;;5.40;3.97;;;7.80;91.60;;;;;;5093493;28;20046;-75
2021/01/12 03:06:08;;;;;;;4.72;3.92;;;7.80;91.60;;;;;;5093602;28;20032;-75
2021/01/12 03:08:34;;;;;;;5.00;3.97;;;7.80;91.60;;;;;;5093501;28;20020;-75
2021/01/12 03:11:00;;;;;;;5.22;4.15;;;7.90;91.70;;;;;;5093330;28;20028;-76
2021/01/12 03:13:25;;;;;;;4.32;3.65;;;7.90;91.70;;;;;;5093311;28;20028;-74
2021/01/12 03:15:51;;;;;;;5.03;3.75;;;7.90;91.70;;;;;;5093424;28;20032;-75
2021/01/12 03:18:16;;;;;;;5.18;4.13;;;7.90;91.80;;;;;;5094923;28;20043;-75
2021/01/12 03:20:42;;;;;;;5.78;4.00;;;7.90;91.80;;;;;;5093051;28;20048;-75
2021/01/12 03:23:08;;;;;;;6.97;4.07;;;7.90;91.80;;;;;;5094547;28;20028;-75
2021/01/12 03:25:33;;;;;;;4.88;4.00;;;7.90;91.80;;;;;;5093142;28;20387;-75
2021/01/12 03:27:59;;;;;;;5.13;4.20;;;7.90;91.80;;;;;;5093138;28;20031;-75
2021/01/12 03:30:25;;;;;;;5.93;3.58;;;7.90;91.90;;;;;;5093066;28;20024;-75
2021/01/12 03:32:52;;;;;;;4.40;3.97;;;7.90;91.80;;;;;;5094411;28;20032;-75
2021/01/12 03:35:18;;;;;;;5.93;4.40;;;7.90;91.80;;;;;;5093019;28;20031;-75
2021/01/12 03:37:44;;;;;;;4.40;3.55;;;7.90;91.80;;;;;;5093862;28;20024;-75
2021/01/12 03:40:10;;;;;;;4.55;3.70;;;7.90;91.80;;;;;;5093004;28;20115;-75
2021/01/12 03:42:36;;;;;;;5.30;3.65;;;8.00;91.90;;;;;;5092751;28;20465;-76
2021/01/12 03:45:06;;;;;;;5.45;3.60;;;8.00;91.90;;;;;;5094319;28;20479;-75
2021/01/12 03:47:32;;;;;;;6.95;4.00;;;7.90;91.80;;;;;;5112278;28;20039;-75
2021/01/12 03:49:58;;;;;;;6.60;3.40;;;8.00;91.90;;;;;;5112559;28;20376;-75
2021/01/12 03:52:23;;;;;;;4.88;3.50;;;8.00;91.90;;;;;;5112347;28;20040;-75
2021/01/12 03:54:49;;;;;;;4.95;3.20;;;8.00;91.90;;;;;;5112295;28;20051;-75
2021/01/12 03:57:15;;;;;;;4.80;2.80;;;8.00;91.90;;;;;;5112141;28;20028;-75
2021/01/12 03:59:40;;;;;;;3.45;2.70;;;8.00;91.90;;;;;;5112179;28;20379;-75
2021/01/12 04:02:06;;;;;;;4.30;2.78;;;8.00;91.90;;;;;;5112216;28;20063;-75
2021/01/12 04:04:32;;;;;;;3.75;2.30;;;8.00;91.90;;;;;;5111897;28;20130;-75
2021/01/12 04:06:57;;;;;;;2.60;2.20;;;8.00;91.90;;;;;;5112092;28;20050;-75
2021/01/12 04:09:23;;;;;;;2.83;2.00;;;8.00;92.00;;;;;;5111835;28;20028;-75
2021/01/12 04:11:49;;;;;;;3.45;2.35;;;8.00;92.00;;;;;;5094778;28;20073;-75
2021/01/12 04:14:15;;;;;;;3.75;1.83;;;8.00;92.00;;;;;;5111801;28;20044;-76
2021/01/12 04:16:41;;;;;;;2.17;1.52;;;8.00;92.00;;;;;;5111988;28;20019;-76
2021/01/12 04:19:09;;;;;;;3.42;2.03;;;8.00;91.90;;;;;;5097089;28;20036;-75
2021/01/12 04:21:35;;;;;;;2.42;1.63;;;8.00;92.00;;;;;;5092436;28;20020;-75
2021/01/12 04:24:00;;;;;;;1.98;1.55;;;8.10;92.00;;;;;;5092292;28;20034;-76
2021/01/12 04:26:26;;;;;;;1.65;1.52;;;8.10;91.90;;;;;;5093528;28;20043;-76
2021/01/12 04:28:52;;;;;;;4.18;2.00;;;8.10;91.90;;;;;;5092270;28;20019;-75
2021/01/12 04:31:17;;;;;;;3.70;2.00;;;8.10;91.90;;;;;;5092108;28;20056;-76
2021/01/12 04:33:43;;;;;;;4.13;2.03;;;8.10;91.90;;;;;;5092368;28;20023;-75
2021/01/12 04:36:09;;;;;;;4.75;2.58;;;8.10;91.90;;;;;;5092177;28;20016;-75
2021/01/12 04:38:34;;;;;;;3.15;2.10;;;8.10;91.90;;;;;;5092058;28;20020;-75
2021/01/12 04:41:00;;;;;;;3.95;2.30;;;8.10;91.90;;;;;;5093495;28;20032;-75
2021/01/12 04:43:25;;;;;;;3.85;2.22;;;8.10;91.90;;;;;;5091788;28;20024;-75
2021/01/12 04:45:51;;;;;;;2.63;2.05;;;8.10;91.90;;;;;;5093458;28;20153;-75
2021/01/12 04:48:17;;;;;;;4.32;2.13;;;8.10;91.90;;;;;;5091195;28;20138;-75
2021/01/12 04:50:43;;;;;;;3.88;2.50;;;8.10;92.00;;;;;;5091812;28;20028;-75
2021/01/12 04:53:08;;;;;;;3.28;2.30;;;8.10;91.90;;;;;;5093085;28;20471;-76
2021/01/12 04:55:34;;;;;;;2.67;2.15;;;8.10;92.00;;;;;;5091843;28;20020;-75
2021/01/12 04:58:00;;;;;;;3.58;2.30;;;8.10;92.00;;;;;;5092536;28;20016;-75
2021/01/12 05:00:28;;;;;;;4.18;2.65;;;8.10;92.00;;;;;;5091740;28;20052;-76
2021/01/12 05:03:08;;;;;;;2.95;2.53;;;8.10;92.10;;;;;;5091768;28;20028;-75
2021/01/12 05:05:38;;;;;;;3.63;2.38;;;8.10;92.10;;;;;;5091469;28;20051;-75
2021/01/12 05:08:09;;;;;;;5.15;2.60;;;8.10;92.10;;;;;;5092149;28;20032;-75
2021/01/12 05:10:38;;;;;;;3.28;2.47;;;8.10;92.10;;;;;;5092838;28;20351;-76
2021/01/12 05:13:13;;;;;;;3.75;2.78;;;8.10;92.10;;;;;;5091281;28;20495;-75
2021/01/12 05:15:40;;;;;;;4.30;2.80;;;8.10;92.10;;;;;;5091649;28;20020;-76
2021/01/12 05:18:10;;;;;;;5.15;2.08;;;8.10;92.10;;;;;;5092796;28;20379;-75
2021/01/12 05:20:41;;;;;;;3.75;2.50;;;8.10;92.10;;;;;;5092621;28;20067;-75
2021/01/12 05:26:36;;;;;;;4.00;2.20;;;8.20;92.10;;;;;;5092987;28;20478;-75
2021/01/12 05:29:04;;;;;;;3.75;2.10;;;8.20;92.10;;;;;;5091214;28;20498;-75
2021/01/12 05:31:30;;;;;;;3.53;2.00;;;8.20;92.10;;;;;;5091208;28;20062;-75
2021/01/12 05:34:01;;;;;;;4.82;2.50;;;8.20;92.10;;;;;;5091246;28;20040;-75
2021/01/12 05:36:29;;;;;;;4.30;2.38;;;8.20;92.10;;;;;;5092599;28;20498;-75
2021/01/12 05:39:02;;;;;;;4.03;2.50;;;8.20;92.10;;;;;;5092739;28;20024;-75
2021/01/12 05:41:30;;;;;;;4.40;2.60;;;8.20;92.10;;;;;;5091223;28;20028;-75
2021/01/12 05:43:56;;;;;;;3.72;2.38;;;8.20;92.10;;;;;;5091091;28;20020;-75
2021/01/12 05:46:22;;;;;;;3.92;2.72;;;8.20;92.10;;;;;;5091122;28;20044;-75
2021/01/12 05:48:48;;;;;;;5.32;2.70;;;8.20;92.10;;;;;;5091117;28;20618;-75
2021/01/12 05:51:15;;;;;;;3.65;2.80;;;8.20;92.10;;;;;;5091041;28;20490;-75
2021/01/12 05:53:47;;;;;;;5.90;2.67;;;8.30;92.20;;;;;;5090743;28;20077;-76
2021/01/12 05:56:23;;;;;;;4.43;2.47;;;8.30;92.20;;;;;;5092338;28;20514;-76
2021/01/12 05:58:56;;;;;;;3.47;2.70;;;8.30;92.20;;;;;;5090990;28;20027;-76
2021/01/12 06:01:34;;;;;;;2.67;1.67;;;8.30;92.20;;;;;;5095581;28;20166;-76
2021/01/12 06:04:06;;;;;;;1.83;1.67;;;8.30;92.10;;;;;;5095024;28;20080;-77
2021/01/12 06:06:32;;;;;;;2.78;1.38;;;8.30;92.10;;;;;;5094788;28;20036;-76
2021/01/12 06:08:59;;;;;;;1.00;1.00;;;8.20;92.10;;;;;;5092124;28;20122;-76
2021/01/12 06:11:31;;;;;;;1.00;0.98;;;8.20;92.10;;;;;;5094722;28;20058;-76
2021/01/12 06:14:07;;;;;;;1.20;1.10;;;8.20;92.10;;;;;;5095050;28;20552;-76
2021/01/12 06:16:36;;;;;;;1.02;0.80;;;8.20;92.10;;;;;;5094562;28;20024;-76
2021/01/12 06:19:04;;;;;;;1.90;0.95;;;8.20;92.00;;;;;;5094555;28;20101;-76
2021/01/12 06:21:34;;;;;;;1.00;0.93;;;8.20;92.10;;;;;;5094531;28;20016;-76
2021/01/12 06:24:08;;;;;;;1.30;1.20;;;8.20;92.00;;;;;;5094624;28;20028;-76
2021/01/12 06:26:35;;;;;;;2.25;1.50;;;8.20;92.00;;;;;;5094582;28;20099;-76
2021/01/12 06:29:01;;;;;;;1.50;1.40;;;8.20;92.00;;;;;;5096115;28;20047;-76
2021/01/12 06:31:26;;;;;;;2.03;1.80;;;8.20;92.00;;;;;;5094498;28;20020;-76
2021/01/12 06:33:56;;;;;;;1.92;1.75;;;8.30;92.10;;;;;;5094465;28;20111;-76
2021/01/12 06:36:25;;;;;;;2.42;1.75;;;8.30;92.00;;;;;;5094358;28;20472;-76
2021/01/12 06:38:51;;;;;;;3.53;2.25;;;8.30;92.00;;;;;;5094159;28;20472;-76
2021/01/12 06:41:20;;;;;;;2.58;1.92;;;8.40;92.00;;;;;;5094175;28;20081;-76
2021/01/12 06:43:49;;;;;;;2.33;2.00;;;8.30;92.00;;;;;;5094123;28;20031;-76
2021/01/12 06:46:16;;;;;;;2.28;2.00;;;8.40;92.00;;;;;;5094178;28;20016;-76
2021/01/12 06:48:43;;;;;;;5.18;1.80;;;8.30;92.00;;;;;;5094017;28;20119;-75
2021/01/12 06:51:09;;;;;;;2.72;1.88;;;8.30;92.00;;;;;;5095376;28;20028;-76
2021/01/12 06:53:35;;;;;;;3.30;2.38;;;8.30;92.00;;;;;;5093861;28;20030;-76
2021/01/12 06:56:05;;;;;;;2.05;1.70;;;8.30;92.00;;;;;;5095327;28;20020;-76
2021/01/12 06:58:31;;;;;;;4.03;2.05;;;8.30;92.00;;;;;;5093912;28;20020;-76
2021/01/12 07:00:59;;;;;;;5.13;2.20;;;8.30;92.00;;;;;;5090957;28;20471;-76
2021/01/12 07:03:31;;;;;;;2.63;1.73;;;8.30;92.00;;;;;;5093934;28;20081;-76
2021/01/12 07:06:03;;;;;;;3.00;1.60;;;8.30;92.00;;;;;;5095134;28;20020;-76
2021/01/12 07:08:30;;;;;;;4.10;2.33;;;8.30;92.30;;;;;;5093661;28;20388;-76
2021/01/12 07:11:02;;;;;;;3.83;2.10;;;8.30;92.00;;;;;;5094012;28;20042;-76
2021/01/12 07:13:39;;;;;;;3.45;2.00;;;8.30;92.00;;;;;;5094743;28;20378;-76
2021/01/12 07:16:15;;;;;;;3.13;1.80;;;8.20;92.00;;;;;;5093964;28;20043;-76
2021/01/12 07:18:44;;;;;;;2.90;1.80;;;8.20;92.00;;;;;;5093356;28;20169;-77
2021/01/12 07:21:14;;;;;;;2.25;1.80;;;8.20;92.00;;;;;;5093614;28;20114;-77
2021/01/12 07:23:42;;;;;;;5.30;1.73;;;8.20;92.00;;;;;;5094739;28;20031;-76
2021/01/12 07:26:09;;;;;;;3.53;1.50;;;8.10;91.90;;;;;;5093532;28;20024;-76
2021/01/12 07:28:45;;;;;;;1.80;1.55;;;8.10;91.90;;;;;;5093350;28;20020;-76
2021/01/12 07:31:11;;;;;;;3.45;1.60;;;8.10;91.90;;;;;;5093627;28;20020;-76
2021/01/12 07:36:58;;;;;;;2.15;1.60;;;8.10;91.90;;;;;;5097790;28;20027;-76
2021/01/12 07:39:24;;;;;;;2.28;1.50;;;8.10;91.90;;;;;;5092989;28;20012;-76
2021/01/12 07:41:50;;;;;;;2.33;1.38;;;8.10;91.90;;;;;;5094673;28;20108;-76
2021/01/12 07:47:47;;;;;;;3.70;1.95;;;8.10;91.90;;;;;;5095031;28;20042;-76
2021/01/12 07:50:14;;;;;;;3.03;2.25;;;8.10;91.90;;;;;;5092944;28;20052;-77
2021/01/12 07:52:39;;;;;;;4.00;1.80;;;8.10;91.90;;;;;;5092799;28;20024;-76
2021/01/12 07:55:06;;;;;;;3.60;1.90;;;8.10;91.90;;;;;;5092785;28;20020;-76
2021/01/12 07:57:32;;;;;;;4.30;2.20;;;8.10;91.90;;;;;;5092899;28;20023;-76
2021/01/12 08:00:00;;;;;;;3.50;1.90;;;8.10;91.90;;;;;;5094144;28;20016;-76
2021/01/12 08:02:26;;;;;;;4.05;2.22;;;8.10;91.80;;;;;;5092716;28;20024;-76
2021/01/12 08:04:53;;;;;;;6.45;1.77;;;8.10;91.80;;;;;;5093060;28;20024;-76
2021/01/12 08:07:25;;;;;;;3.35;2.22;;;8.00;91.80;;;;;;5092782;28;20024;-76
2021/01/12 08:09:53;;;;;;;3.90;1.80;;;8.00;91.80;;;;;;5092487;28;20093;-76
2021/01/12 08:12:20;;;;;;;3.97;2.03;;;8.00;91.80;;;;;;5092490;28;20418;-76
2021/01/12 08:14:46;;;;;;;3.78;2.30;;;8.00;91.80;;;;;;5092259;28;20099;-76
2021/01/12 08:17:26;;;;;;;11.90;4.57;;;8.00;91.90;;;;;;5093879;28;20059;-76
2021/01/12 08:19:53;;;;;;;8.50;3.85;;;8.00;91.90;;;;;;5092276;28;20507;-75
2021/01/12 08:22:19;;;;;;;3.13;2.40;;;8.00;91.90;;;;;;5092280;28;20043;-76
2021/01/12 08:24:46;;;;;;;2.30;2.10;;;8.00;91.90;;;;;;5092142;28;20066;-76
2021/01/12 08:27:20;;;;;;;2.20;1.85;;;8.00;91.80;;;;;;5092075;28;20032;-76
2021/01/12 08:29:45;;;;;;;;;;;7.90;91.70;;;;;;5092375;28;20044;-76
2021/01/12 08:32:14;;;;;;;3.10;1.90;;;7.90;91.80;;;;;;5093618;28;20279;-75
2021/01/12 08:35:04;;;;;;;2.08;1.88;;;7.90;91.80;;;;;;5094552;28;20016;-76
2021/01/12 08:37:34;;;;;;;2.70;2.00;;;7.80;91.80;;;;;;5092041;28;20384;-74
2021/01/12 08:40:01;;;;;;;2.20;1.95;;;7.80;91.80;;;;;;5092991;28;20487;-75
2021/01/12 08:42:31;;;;;;;2.25;1.90;;;7.80;91.80;;;;;;5092048;28;20021;-76
2021/01/12 08:44:57;;;;;;;2.55;1.90;;;7.80;91.80;;;;;;5093620;28;20035;-75
2021/01/12 08:47:29;;;;;;;5.38;2.47;;;7.90;91.80;;;;;;5094547;28;20045;-76
2021/01/12 08:50:05;;;;;;;1.70;1.60;;;7.80;91.70;;;;;;5092323;28;20023;-76
2021/01/12 08:52:31;;;;;;;2.47;1.40;;;7.80;91.60;;;;;;5092107;28;20016;-76
2021/01/12 08:54:57;;;;;;;3.65;1.65;;;7.70;91.50;;;;;;5092249;28;20048;-76
2021/01/12 08:57:23;;;;;;;1.35;1.20;;;7.60;91.40;;;;;;5093651;28;20048;-75
2021/01/12 08:59:49;;;;;;;11.70;1.63;;;7.60;91.40;;;;;;5093039;28;20491;-76
2021/01/12 09:02:21;;;;;;;3.20;1.55;;;7.50;91.30;;;;;;5093226;28;20032;-76
2021/01/12 09:04:59;;;;;;;3.22;1.10;;;7.40;91.40;;;;;;5091984;28;20080;-76
2021/01/12 09:07:25;;;;;;;2.78;1.10;;;7.30;91.40;;;;;;5094652;28;20031;-76
2021/01/12 09:09:52;;;;;;;1.42;0.88;;;7.30;91.50;;;;;;5092156;28;20020;-77
2021/01/12 09:12:19;;;;;;;0.70;0.70;;;7.30;91.50;;;;;;5093316;28;20031;-77
2021/01/12 09:14:49;;;;;;;1.88;0.90;;;7.30;91.40;;;;;;5094148;28;20067;-79
2021/01/12 09:17:21;;;;;;;3.00;0.88;;;7.30;91.30;;;;;;5096686;28;20020;-78
2021/01/12 09:19:54;;;;;;;1.83;0.85;;;7.40;91.30;;;;;;5096128;28;20048;-78
2021/01/12 09:22:21;;;;;;;1.52;0.82;;;7.40;91.30;;;;;;5097552;28;20020;-78
2021/01/12 09:24:52;;;;;;;2.03;0.90;;;7.40;91.30;;;;;;5097811;28;20431;-77
2021/01/12 09:27:22;;;;;;;3.83;1.00;;;7.40;91.20;;;;;;5098539;28;20031;-77
2021/01/12 09:29:49;;;;;;;4.72;0.82;;;7.40;91.20;;;;;;5098576;28;20055;-77
2021/01/12 09:32:37;;;;;;;2.65;0.98;;;7.40;91.00;;;;;;5100343;28;20035;-78
2021/01/12 09:35:05;;;;;;;2.10;1.10;;;7.30;91.10;;;;;;5099538;28;20093;-78
2021/01/12 09:37:31;;;;;;;4.00;1.17;;;7.30;91.10;;;;;;5101205;28;20483;-78
2021/01/12 09:40:00;;;;;;;2.15;1.00;;;7.30;91.10;;;;;;5101521;28;20024;-77
2021/01/12 09:42:28;;;;;;;4.47;1.40;;;7.30;91.00;;;;;;5094112;28;20118;-78
2021/01/12 09:44:55;;;;;;;3.58;1.00;;;7.20;91.00;;;;;;5100079;28;20384;-79
2021/01/12 09:47:21;;;;;;;1.75;0.95;;;7.20;91.00;;;;;;5096507;28;20028;-78
2021/01/12 09:49:48;;;;;;;8.05;1.60;;;7.20;91.00;;;;;;5096828;28;20032;-78
2021/01/12 09:52:16;;;;;;;3.78;1.30;;;7.10;91.00;;;;;;5095802;28;20361;-79
2021/01/12 09:54:45;;;;;;;2.67;1.02;;;7.20;91.10;;;;;;5097313;28;20467;-78
2021/01/12 09:57:14;;;;;;;3.38;0.82;;;7.10;91.00;;;;;;5096003;28;20097;-78
2021/01/12 09:59:40;;;;;;;2.65;0.82;;;7.10;91.10;;;;;;5095298;28;20472;-78
2021/01/12 10:02:07;;;;;;;1.55;0.77;;;7.10;91.10;;;;;;5095591;28;20194;-79
2021/01/12 10:04:33;;;;;;;2.75;0.90;;;7.10;91.10;;;;;;5096860;28;20023;-78
2021/01/12 10:07:00;;;;;;;2.83;0.70;;;7.20;91.10;;;;;;5094950;28;20429;-78
2021/01/12 10:09:27;;;;;;;3.28;0.60;;;7.20;91.10;;;;;;5095372;28;20066;-78
2021/01/12 10:11:53;;;;;;;2.90;0.80;;;7.30;91.00;;;;;;5096326;28;20028;-78
2021/01/12 10:14:21;;;;;;;2.47;0.80;;;7.30;91.00;;;;;;5095239;28;20031;-78
2021/01/12 10:16:48;;;;;;;5.05;0.70;;;7.20;90.90;;;;;;5095069;28;20111;-78
2021/01/12 10:19:14;;;;;;;2.95;0.98;;;7.30;91.00;;;;;;5095945;28;20056;-78
2021/01/12 10:21:40;;;;;;;2.88;0.88;;;7.30;91.00;;;;;;5095223;28;20420;-78
2021/01/12 10:24:06;;;;;;;2.00;0.75;;;7.30;90.80;;;;;;5094985;28;20101;-78
2021/01/12 10:26:32;;;;;;;1.33;0.75;;;7.30;90.80;;;;;;5095136;28;20047;-78
2021/01/12 10:28:58;;;;;;;1.48;0.50;;;7.20;90.80;;;;;;5095168;28;20428;-79
2021/01/12 10:31:24;;;;;;;3.28;0.90;;;7.30;90.70;;;;;;5095043;28;20031;-78
2021/01/12 10:33:51;;;;;;;1.23;0.47;;;7.20;90.80;;;;;;5094814;28;20024;-78
2021/01/12 10:36:18;;;;;;;3.75;0.73;;;7.30;90.80;;;;;;5094958;28;20028;-79
2021/01/12 10:38:44;;;;;;;2.33;0.60;;;7.20;90.60;;;;;;5094605;28;20142;-77
2021/01/12 10:41:10;;;;;;;1.58;0.68;;;7.20;90.50;;;;;;5094707;28;20115;-78
2021/01/12 10:43:36;;;;;;;0.95;0.40;;;7.00;90.30;;;;;;5094576;28;20062;-78
2021/01/12 10:46:04;;;;;;;1.42;0.60;;;6.90;90.30;;;;;;5094887;28;20042;-78
2021/01/12 10:48:30;;;;;;;1.60;0.20;;;6.80;90.40;;;;;;5093990;28;20020;-77
2021/01/12 10:50:55;;;;;;;2.35;0.35;;;6.70;90.30;;;;;;5094164;28;20028;-77
2021/01/12 10:53:21;;;;;;;0.77;0.30;;;6.50;90.50;;;;;;5094063;28;20020;-77
2021/01/12 10:55:47;;;;;;;2.53;0.40;;;6.50;90.60;;;;;;5094003;28;20026;-77
2021/01/12 10:58:13;;;;;;;1.70;0.30;;;6.50;90.60;;;;;;5094016;28;20020;-77
2021/01/12 11:00:39;;;;;;;1.73;0.30;;;6.50;90.70;;;;;;5095341;28;20069;-77
2021/01/12 11:03:08;;;;;;;1.70;0.38;;;6.50;90.60;;;;;;5095797;28;20475;-77
2021/01/12 11:05:35;;;;;;;0.68;0.20;;;6.50;90.60;;;;;;5093675;28;20039;-78
2021/01/12 11:08:02;;;;;;;1.48;0.50;;;6.70;90.70;;;;;;5093810;28;20016;-77
2021/01/12 11:10:28;;;;;;;3.45;0.63;;;6.70;90.70;;;;;;5094074;28;20458;-78
2021/01/12 11:12:54;;;;;;;2.03;0.70;;;6.70;90.30;;;;;;5093691;28;20050;-77
2021/01/12 11:15:20;;;;;;;2.10;0.70;;;6.70;90.20;;;;;;5093849;28;20111;-77
2021/01/12 11:17:46;;;;;;;5.65;0.70;;;6.60;90.30;;;;;;5093699;28;20483;-77
2021/01/12 11:20:13;;;;;;;3.08;0.68;;;6.60;90.30;;;;;;5093468;28;20078;-77
2021/01/12 11:22:40;;;;;;;0.68;0.25;;;6.60;90.20;;;;;;5093463;28;20016;-77
2021/01/12 11:25:06;;;;;;;1.80;0.50;;;6.60;90.30;;;;;;5093440;28;20050;-77
2021/01/12 11:27:33;;;;;;;2.92;0.43;;;6.60;90.30;;;;;;5093283;28;20028;-77
2021/01/12 11:29:59;;;;;;;2.05;0.40;;;6.60;90.20;;;;;;5093213;28;20077;-77
2021/01/12 11:32:26;;;;;;;3.85;0.70;;;6.70;90.20;;;;;;5093248;28;20061;-77
2021/01/12 11:34:52;;;;;;;2.45;0.60;;;6.70;90.00;;;;;;5093360;28;20051;-77
2021/01/12 11:37:18;;;;;;;4.90;1.15;;;6.80;90.10;;;;;;5093300;28;20028;-77
2021/01/12 11:39:44;;;;;;;2.70;0.50;;;6.90;90.10;;;;;;5093186;28;20049;-77
2021/01/12 11:42:11;;;;;;;4.35;0.90;;;6.90;90.00;;;;;;5093181;28;20028;-77
2021/01/12 11:44:40;;;;;;;3.28;0.68;;;6.90;89.20;;;;;;5092889;28;20060;-77
2021/01/12 11:47:06;;;;;;;1.45;0.50;;;6.90;89.00;;;;;;5092932;28;20023;-78
2021/01/12 11:49:32;;;;;;;4.50;0.68;;;6.90;89.00;;;;;;5093088;28;20024;-77
2021/01/12 11:51:58;;;;;;;3.05;0.75;;;6.90;88.70;;;;;;5092861;28;20024;-77
2021/01/12 11:54:24;;;;;;;3.28;0.93;;;7.00;88.60;;;;;;5094137;28;20047;-77
2021/01/12 11:56:52;;;;;;;1.73;0.50;;;7.10;88.70;;;;;;5094148;28;20325;-77
2021/01/12 11:59:19;;;;;;;3.58;1.13;;;7.20;88.60;;;;;;5092444;28;20111;-77
2021/01/12 12:01:45;;;;;;;6.80;0.82;;;7.20;87.90;;;;;;5092775;28;20522;-77
2021/01/12 12:04:11;;;;;;;7.10;0.85;;;7.30;87.00;;;;;;5094187;28;20108;-77
2021/01/12 12:06:39;;;;;;;5.10;0.60;;;7.30;86.20;;;;;;5093908;28;20035;-78
2021/01/12 12:09:05;;;;;;;4.18;0.73;;;7.30;85.30;;;;;;5092609;28;20043;-77
2021/01/12 12:11:38;;;;;;;2.55;0.80;;;7.30;85.80;;;;;;5092794;28;20026;-77
2021/01/12 12:14:04;;;;;;;2.88;0.80;;;7.20;85.90;;;;;;5092688;28;20403;-76
2021/01/12 12:16:31;;;;;;;3.60;0.80;;;7.30;85.40;;;;;;5092454;28;20008;-77
2021/01/12 12:18:57;;;;;;;4.85;0.70;;;7.30;85.50;;;;;;5092207;28;20165;-77
2021/01/12 12:21:22;;;;;;;6.63;0.90;;;7.30;85.10;;;;;;5093890;28;20016;-77
2021/01/12 12:23:48;;;;;;;6.18;1.08;;;7.30;83.80;;;;;;5092501;28;20460;-77
2021/01/12 12:26:14;;;;;;;2.38;0.63;;;7.20;83.60;;;;;;5092819;28;20103;-77
2021/01/12 12:28:44;;;;;;;3.60;0.80;;;7.20;83.70;;;;;;5092254;28;20024;-77
2021/01/12 12:31:11;;;;;;;3.20;0.85;;;7.10;83.50;;;;;;5093845;28;20475;-77
2021/01/12 12:33:37;;;;;;;2.78;0.90;;;7.10;83.30;;;;;;5092355;28;20031;-77
2021/01/12 12:36:12;;;;;;;2.55;0.70;;;7.10;83.40;;;;;;5092571;28;20020;-77
2021/01/12 12:38:40;;;;;;;4.22;0.90;;;7.10;82.80;;;;;;5092541;28;20123;-77
2021/01/12 12:41:15;;;;;;;4.38;0.90;;;7.00;83.10;;;;;;5094100;28;20024;-77
2021/01/12 12:43:43;;;;;;;7.38;1.10;;;7.00;82.30;;;;;;5092197;28;20020;-77
2021/01/12 12:46:10;;;;;;;5.13;0.90;;;7.00;81.40;;;;;;5092247;28;20080;-76
2021/01/12 12:48:36;;;;;;;5.35;0.82;;;7.10;81.90;;;;;;5092244;28;20376;-76
2021/01/12 12:51:04;;;;;;;5.28;0.82;;;7.10;80.90;;;;;;5091916;28;20080;-77
2021/01/12 12:53:33;;;;;;;6.78;1.10;;;7.10;80.40;;;;;;5091886;28;20162;-77
2021/01/12 12:55:59;;;;;;;3.33;0.88;;;7.10;79.60;;;;;;5092136;28;20024;-77
2021/01/12 12:58:25;;;;;;;5.82;0.90;;;7.10;78.30;;;;;;5092143;28;20086;-79
2021/01/12 13:00:54;;;;;;;6.43;0.77;;;7.10;78.00;;;;;;5092578;28;20127;-77
2021/01/12 13:03:20;;;;;;;3.28;0.75;;;7.10;76.90;;;;;;5092867;28;20479;-78
2021/01/12 13:05:46;;;;;;;5.07;1.20;;;7.10;78.30;;;;;;5092771;28;20020;-77
2021/01/12 13:08:12;;;;;;;9.07;1.25;;;7.20;77.30;;;;;;5092069;28;20016;-78
2021/01/12 13:10:38;;;;;;;4.35;0.90;;;7.10;77.30;;;;;;5090919;28;20035;-77
2021/01/12 13:13:04;;;;;;;4.70;0.90;;;7.10;76.30;;;;;;5093006;28;20043;-77